Time,TemperatureF,DewpointF,PressureIn,WindDirection,WindDirectionDegrees,WindSpeedMPH,WindSpeedGustMPH,Humidity,HourlyPrecipIn,Conditions,Clouds,dailyrainin,SoftwareType,DateUTC
2013-03-04 00:04:00,62.9,35.0,29.96,WSW,250,4.0,9.0,35,0.00,,,0.00,weatherlink.com 1.10,2013-03-04 08:04:00,
2013-03-04 00:19:00,62.7,35.0,29.97,WSW,246,1.0,11.0,35,0.00,,,0.00,weatherlink.com 1.10,2013-03-04 08:19:00,
2013-03-04 00:34:00,63.0,39.0,29.98,NNW,345,4.0,11.0,41,0.00,,,0.00,weatherlink.com 1.10,2013-03-04 08:34:00,
2013-03-04 00:49:00,63.4,40.0,29.98,NNW,328,12.0,12.0,42,0.00,,,0.00,weatherlink.com 1.10,2013-03-04 08:49:00,
2013-03-04 01:04:00,62.6,40.0,29.99,NNW,340,5.0,13.0,43,0.00,,,0.00,weatherlink.com 1.10,2013-03-04 09:04:00,
2013-03-04 01:19:00,61.8,39.0,29.99,NNE,27,3.0,15.0,44,0.00,,,0.00,weatherlink.com 1.10,2013-03-04 09:19:00,
2013-03-04 01:34:00,61.4,40.0,29.99,NNW,342,3.0,17.0,45,0.00,,,0.00,weatherlink.com 1.10,2013-03-04 09:34:00,
2013-03-04 01:49:00,60.9,40.0,29.99,North,5,5.0,12.0,46,0.00,,,0.00,weatherlink.com 1.10,2013-03-04 09:49:00,
2013-03-04 02:04:00,60.6,40.0,29.99,NNW,338,4.0,9.0,46,0.00,,,0.00,weatherlink.com 1.10,2013-03-04 10:04:00,
2013-03-04 02:19:00,60.3,40.0,29.99,NE,42,0.0,8.0,47,0.00,,,0.00,weatherlink.com 1.10,2013-03-04 10:19:00,
2013-03-04 02:34:00,59.6,40.0,29.99,ENE,61,0.0,5.0,48,0.00,,,0.00,weatherlink.com 1.10,2013-03-04 10:34:00,
2013-03-04 02:49:00,58.9,39.0,30.00,North,349,0.0,3.0,48,0.00,,,0.00,weatherlink.com 1.10,2013-03-04 10:49:00,
2013-03-04 03:04:00,58.7,39.0,30.00,WSW,250,0.0,3.0,49,0.00,,,0.00,weatherlink.com 1.10,2013-03-04 11:04:00,
2013-03-04 03:19:00,58.3,39.0,30.01,NNW,327,0.0,4.0,49,0.00,,,0.00,weatherlink.com 1.10,2013-03-04 11:19:00,
2013-03-04 03:34:00,58.0,38.0,30.01,WSW,242,4.0,8.0,47,0.00,,,0.00,weatherlink.com 1.10,2013-03-04 11:34:00,
2013-03-04 03:49:00,58.4,37.0,30.03,NW,315,1.0,5.0,46,0.00,,,0.00,weatherlink.com 1.10,2013-03-04 11:49:00,
2013-03-04 04:05:00,57.7,37.0,30.03,North,5,0.0,4.0,46,0.00,,,0.00,weatherlink.com 1.10,2013-03-04 12:05:00,
2013-03-04 04:20:00,57.3,36.0,30.04,NW,316,1.0,2.0,46,0.00,,,0.00,weatherlink.com 1.10,2013-03-04 12:20:00,
2013-03-04 04:35:00,57.3,36.0,30.04,NW,313,0.0,2.0,46,0.00,,,0.00,weatherlink.com 1.10,2013-03-04 12:35:00,
2013-03-04 04:50:00,56.6,36.0,30.05,NW,307,0.0,2.0,47,0.00,,,0.00,weatherlink.com 1.10,2013-03-04 12:50:00,
2013-03-04 05:05:00,56.9,36.0,30.05,SW,234,4.0,7.0,46,0.00,,,0.00,weatherlink.com 1.10,2013-03-04 13:05:00,
2013-03-04 05:20:00,56.7,36.0,30.06,WSW,257,2.0,5.0,46,0.00,,,0.00,weatherlink.com 1.10,2013-03-04 13:20:00,
2013-03-04 05:35:00,56.4,36.0,30.06,West,259,0.0,4.0,46,0.00,,,0.00,weatherlink.com 1.10,2013-03-04 13:35:00,
2013-03-04 05:50:00,55.7,36.0,30.07,NW,321,3.0,3.0,48,0.00,,,0.00,weatherlink.com 1.10,2013-03-04 13:50:00,
2013-03-04 06:05:00,55.1,36.0,30.07,WSW,248,0.0,3.0,49,0.00,,,0.00,weatherlink.com 1.10,2013-03-04 14:05:00,
2013-03-04 06:20:00,54.8,36.0,30.07,WSW,247,0.0,2.0,49,0.00,,,0.00,weatherlink.com 1.10,2013-03-04 14:20:00,
2013-03-04 06:35:00,54.2,36.0,30.08,West,280,1.0,2.0,51,0.00,,,0.00,weatherlink.com 1.10,2013-03-04 14:35:00,
2013-03-04 06:50:00,54.3,37.0,30.09,West,280,0.0,2.0,52,0.00,,,0.00,weatherlink.com 1.10,2013-03-04 14:50:00,
2013-03-04 07:05:00,54.9,37.0,30.10,West,280,0.0,0.0,51,0.00,,,0.00,weatherlink.com 1.10,2013-03-04 15:05:00,
2013-03-04 07:20:00,57.3,38.0,30.11,WSW,249,0.0,2.0,49,0.00,,,0.00,weatherlink.com 1.10,2013-03-04 15:20:00,
2013-03-04 07:35:00,59.8,39.0,30.12,WSW,249,0.0,1.0,46,0.00,,,0.00,weatherlink.com 1.10,2013-03-04 15:35:00,
2013-03-04 07:50:00,61.6,39.0,30.12,North,355,1.0,3.0,44,0.00,,,0.00,weatherlink.com 1.10,2013-03-04 15:50:00,
2013-03-04 08:05:00,63.0,39.0,30.13,NNW,328,5.0,14.0,41,0.00,,,0.00,weatherlink.com 1.10,2013-03-04 16:05:00,
2013-03-04 08:20:00,63.7,38.0,30.13,NNW,344,7.0,14.0,39,0.00,,,0.00,weatherlink.com 1.10,2013-03-04 16:20:00,
2013-03-04 08:35:00,64.5,38.0,30.13,North,355,6.0,15.0,38,0.00,,,0.00,weatherlink.com 1.10,2013-03-04 16:35:00,
2013-03-04 08:50:00,65.4,38.0,30.13,NE,39,3.0,12.0,36,0.00,,,0.00,weatherlink.com 1.10,2013-03-04 16:50:00,
2013-03-04 09:05:00,66.3,37.0,30.14,North,355,5.0,10.0,34,0.00,,,0.00,weatherlink.com 1.10,2013-03-04 17:05:00,
2013-03-04 09:20:00,67.1,37.0,30.14,WNW,298,7.0,10.0,33,0.00,,,0.00,weatherlink.com 1.10,2013-03-04 17:20:00,
2013-03-04 09:35:00,67.7,37.0,30.15,NE,55,3.0,11.0,32,0.00,,,0.00,weatherlink.com 1.10,2013-03-04 17:35:00,
2013-03-04 09:50:00,68.2,36.0,30.15,ENE,74,0.0,7.0,31,0.00,,,0.00,weatherlink.com 1.10,2013-03-04 17:50:00,
2013-03-04 10:05:00,68.8,36.0,30.15,NNW,332,3.0,8.0,30,0.00,,,0.00,weatherlink.com 1.10,2013-03-04 18:05:00,
2013-03-04 10:20:00,69.5,36.0,30.15,NNW,344,2.0,9.0,29,0.00,,,0.00,weatherlink.com 1.10,2013-03-04 18:20:00,
2013-03-04 10:35:00,70.0,35.0,30.15,ENE,78,4.0,11.0,28,0.00,,,0.00,weatherlink.com 1.10,2013-03-04 18:35:00,
2013-03-04 10:50:00,70.6,35.0,30.15,NNE,21,1.0,7.0,27,0.00,,,0.00,weatherlink.com 1.10,2013-03-04 18:50:00,
2013-03-04 11:05:00,71.2,35.0,30.15,ENE,70,3.0,7.0,27,0.00,,,0.00,weatherlink.com 1.10,2013-03-04 19:05:00,
2013-03-04 11:21:00,71.5,35.0,30.14,NE,47,0.0,9.0,26,0.00,,,0.00,weatherlink.com 1.10,2013-03-04 19:21:00,
2013-03-04 11:36:00,72.0,34.0,30.14,WNW,292,0.0,6.0,25,0.00,,,0.00,weatherlink.com 1.10,2013-03-04 19:36:00,
2013-03-04 11:51:00,72.3,33.0,30.14,ESE,108,1.0,6.0,24,0.00,,,0.00,weatherlink.com 1.10,2013-03-04 19:51:00,
2013-03-04 12:06:00,72.0,33.0,30.13,ESE,115,2.0,9.0,24,0.00,,,0.00,weatherlink.com 1.10,2013-03-04 20:06:00,
2013-03-04 12:21:00,73.2,33.0,30.13,ENE,67,1.0,5.0,23,0.00,,,0.00,weatherlink.com 1.10,2013-03-04 20:21:00,
2013-03-04 12:36:00,73.6,34.0,30.12,North,9,2.0,6.0,23,0.00,,,0.00,weatherlink.com 1.10,2013-03-04 20:36:00,
2013-03-04 12:51:00,74.3,32.0,30.12,ENE,68,0.0,7.0,21,0.00,,,0.00,weatherlink.com 1.10,2013-03-04 20:51:00,
2013-03-04 13:06:00,73.8,31.0,30.12,East,96,3.0,9.0,21,0.00,,,0.00,weatherlink.com 1.10,2013-03-04 21:06:00,
2013-03-04 13:21:00,73.4,31.0,30.12,East,80,0.0,7.0,21,0.00,,,0.00,weatherlink.com 1.10,2013-03-04 21:21:00,
2013-03-04 13:36:00,74.8,31.0,30.12,NW,318,3.0,6.0,20,0.00,,,0.00,weatherlink.com 1.10,2013-03-04 21:36:00,
2013-03-04 13:51:00,75.2,30.0,30.12,NNW,331,2.0,8.0,19,0.00,,,0.00,weatherlink.com 1.10,2013-03-04 21:51:00,
2013-03-04 14:06:00,74.7,31.0,30.12,NNW,336,0.0,7.0,20,0.00,,,0.00,weatherlink.com 1.10,2013-03-04 22:06:00,
2013-03-04 14:21:00,75.1,30.0,30.13,ESE,109,2.0,6.0,19,0.00,,,0.00,weatherlink.com 1.10,2013-03-04 22:21:00,
2013-03-04 14:36:00,73.9,30.0,30.13,ENE,60,1.0,8.0,20,0.00,,,0.00,weatherlink.com 1.10,2013-03-04 22:36:00,
2013-03-04 14:51:00,73.9,28.0,30.13,ESE,113,1.0,7.0,18,0.00,,,0.00,weatherlink.com 1.10,2013-03-04 22:51:00,
2013-03-04 15:06:00,74.4,29.0,30.13,ENE,67,1.0,4.0,19,0.00,,,0.00,weatherlink.com 1.10,2013-03-04 23:06:00,
2013-03-04 15:21:00,74.0,30.0,30.13,NE,38,1.0,7.0,20,0.00,,,0.00,weatherlink.com 1.10,2013-03-04 23:21:00,
2013-03-04 15:36:00,74.6,30.0,30.13,ENE,78,0.0,2.0,19,0.00,,,0.00,weatherlink.com 1.10,2013-03-04 23:36:00,
2013-03-04 15:51:00,73.9,29.0,30.13,NE,54,2.0,7.0,19,0.00,,,0.00,weatherlink.com 1.10,2013-03-04 23:51:00,
2013-03-04 16:06:00,72.4,28.0,30.13,North,11,1.0,5.0,19,0.00,,,0.00,weatherlink.com 1.10,2013-03-05 00:06:00,
2013-03-04 16:21:00,71.9,29.0,30.13,NE,38,4.0,5.0,20,0.00,,,0.00,weatherlink.com 1.10,2013-03-05 00:21:00,
2013-03-04 16:36:00,71.3,27.0,30.14,ENE,63,3.0,3.0,19,0.00,,,0.00,weatherlink.com 1.10,2013-03-05 00:36:00,
2013-03-04 16:51:00,71.1,27.0,30.14,ENE,71,2.0,7.0,19,0.00,,,0.00,weatherlink.com 1.10,2013-03-05 00:51:00,
2013-03-04 17:06:00,70.5,26.0,30.14,East,85,0.0,2.0,19,0.00,,,0.00,weatherlink.com 1.10,2013-03-05 01:06:00,
2013-03-04 17:21:00,70.2,26.0,30.14,ENE,70,0.0,3.0,19,0.00,,,0.00,weatherlink.com 1.10,2013-03-05 01:21:00,
2013-03-04 17:36:00,69.2,26.0,30.15,ENE,68,0.0,1.0,20,0.00,,,0.00,weatherlink.com 1.10,2013-03-05 01:36:00,
2013-03-04 17:51:00,68.1,25.0,30.16,ENE,68,0.0,0.0,20,0.00,,,0.00,weatherlink.com 1.10,2013-03-05 01:51:00,
2013-03-04 18:06:00,67.1,26.0,30.16,ENE,67,0.0,1.0,21,0.00,,,0.00,weatherlink.com 1.10,2013-03-05 02:06:00,
2013-03-04 18:21:00,66.4,26.0,30.16,ENE,68,0.0,1.0,22,0.00,,,0.00,weatherlink.com 1.10,2013-03-05 02:21:00,
2013-03-04 18:36:00,65.9,26.0,30.17,ENE,77,0.0,0.0,22,0.00,,,0.00,weatherlink.com 1.10,2013-03-05 02:36:00,
2013-03-04 18:51:00,64.9,27.0,30.18,ENE,74,1.0,7.0,24,0.00,,,0.00,weatherlink.com 1.10,2013-03-05 02:51:00,
2013-03-04 19:06:00,65.8,29.0,30.19,ESE,118,0.0,2.0,25,0.00,,,0.00,weatherlink.com 1.10,2013-03-05 03:06:00,
2013-03-04 19:21:00,64.6,30.0,30.20,ESE,119,0.0,1.0,27,0.00,,,0.00,weatherlink.com 1.10,2013-03-05 03:21:00,
2013-03-04 19:36:00,64.1,31.0,30.20,ESE,116,0.0,1.0,29,0.00,,,0.00,weatherlink.com 1.10,2013-03-05 03:36:00,
2013-03-04 19:51:00,63.2,31.0,30.20,ESE,116,0.0,0.0,30,0.00,,,0.00,weatherlink.com 1.10,2013-03-05 03:51:00,
2013-03-04 20:06:00,61.7,31.0,30.21,ESE,116,0.0,0.0,32,0.00,,,0.00,weatherlink.com 1.10,2013-03-05 04:06:00,
2013-03-04 20:21:00,60.5,32.0,30.22,ESE,116,0.0,0.0,34,0.00,,,0.00,weatherlink.com 1.10,2013-03-05 04:21:00,
2013-03-04 20:36:00,59.5,33.0,30.23,ESE,116,0.0,0.0,37,0.00,,,0.00,weatherlink.com 1.10,2013-03-05 04:36:00,
2013-03-04 20:51:00,58.9,32.0,30.23,ESE,116,0.0,0.0,37,0.00,,,0.00,weatherlink.com 1.10,2013-03-05 04:51:00,
2013-03-04 21:06:00,57.9,33.0,30.23,ESE,116,0.0,0.0,39,0.00,,,0.00,weatherlink.com 1.10,2013-03-05 05:06:00,
2013-03-04 21:21:00,58.0,33.0,30.24,ESE,116,0.0,0.0,39,0.00,,,0.00,weatherlink.com 1.10,2013-03-05 05:21:00,
2013-03-04 21:36:00,58.5,33.0,30.24,ESE,116,0.0,0.0,39,0.00,,,0.00,weatherlink.com 1.10,2013-03-05 05:36:00,
2013-03-04 21:51:00,57.7,34.0,30.24,ESE,116,0.0,1.0,41,0.00,,,0.00,weatherlink.com 1.10,2013-03-05 05:51:00,
2013-03-04 22:06:00,57.7,34.0,30.25,WSW,252,2.0,3.0,41,0.00,,,0.00,weatherlink.com 1.10,2013-03-05 06:06:00,
2013-03-04 22:21:00,57.4,34.0,30.25,WSW,252,1.0,2.0,42,0.00,,,0.00,weatherlink.com 1.10,2013-03-05 06:21:00,
2013-03-04 22:36:00,57.1,33.0,30.25,WSW,252,0.0,2.0,41,0.00,,,0.00,weatherlink.com 1.10,2013-03-05 06:36:00,
2013-03-04 22:51:00,56.2,33.0,30.25,WSW,257,4.0,4.0,41,0.00,,,0.00,weatherlink.com 1.10,2013-03-05 06:51:00,
2013-03-04 23:06:00,56.8,31.0,30.24,WSW,254,5.0,6.0,38,0.00,,,0.00,weatherlink.com 1.10,2013-03-05 07:06:00,
2013-03-04 23:21:00,56.8,31.0,30.25,WSW,249,2.0,4.0,38,0.00,,,0.00,weatherlink.com 1.10,2013-03-05 07:21:00,
2013-03-04 23:36:00,56.6,31.0,30.25,WSW,248,3.0,3.0,38,0.00,,,0.00,weatherlink.com 1.10,2013-03-05 07:36:00,
2013-03-04 23:51:00,56.4,31.0,30.25,WSW,257,3.0,4.0,38,0.00,,,0.00,weatherlink.com 1.10,2013-03-05 07:51:00,